This is the latest recevied weather packets stored in our database for station/object KC4JY. If no packets are shown the sender has not sent any weather packets the latest 10 day(s).
| Time | Temp. | Humidity | Pressure | Rain* | Wind** | Luminosity | Snow |
|---|---|---|---|---|---|---|---|
| 1778012105 | 26.11° C | 49% | 1015.2 hPa | 0 mm | - | - | - |
| 1778011255 | 25.56° C | 48% | 1015.4 hPa | 0 mm | - | - | - |
| 1778010341 | 26.11° C | 46% | 1015.7 hPa | 0 mm | - | - | - |
| 1778009421 | 25.56° C | 47% | 1015.8 hPa | 0 mm | - | - | - |
| 1778008520 | 25° C | 48% | 1016.2 hPa | 0 mm | - | - | - |
| 1778007601 | 25.56° C | 48% | 1016.3 hPa | 0 mm | - | - | - |
| 1778006701 | 25.56° C | 45% | 1016.5 hPa | 0 mm | - | - | - |
| 1778005853 | 25° C | 50% | 1016.7 hPa | 0 mm | - | - | - |
| 1778004941 | 25° C | 51% | 1016.7 hPa | 0 mm | - | - | - |
| 1778004024 | 25° C | 52% | 1016.9 hPa | 0 mm | - | - | - |
| 1778003123 | 24.44° C | 51% | 1016.9 hPa | 0 mm | - | - | - |
| 1778002203 | 25° C | 49% | 1016.9 hPa | 0 mm | - | - | - |
| 1778001361 | 25° C | 50% | 1016.9 hPa | 0 mm | - | - | - |
| 1778000442 | 24.44° C | 53% | 1017 hPa | 0 mm | - | - | - |
| 1777999540 | 24.44° C | 53% | 1017.1 hPa | 0 mm | - | - | - |
| 1777998621 | 23.89° C | 53% | 1017.4 hPa | 0 mm | - | - | - |
| 1777997719 | 23.89° C | 54% | 1017.6 hPa | 0 mm | - | - | - |
| 1777996857 | 23.33° C | 54% | 1017.8 hPa | 0 mm | - | - | - |
| 1777995957 | 23.33° C | 53% | 1017.9 hPa | 0 mm | - | - | - |
| 1777995036 | 22.78° C | 56% | 1017.9 hPa | 0 mm | - | - | - |
| 1777994131 | 22.78° C | 55% | 1017.9 hPa | 0 mm | - | - | - |
| 1777993211 | 22.22° C | 58% | 1017.9 hPa | 0 mm | - | - | - |
| 1777992307 | 22.22° C | 60% | 1017.9 hPa | 0 mm | - | - | - |
| 1777991446 | 21.67° C | 61% | 1018.1 hPa | 0 mm | - | - | - |
| 1777990544 | 21.11° C | 63% | 1018.1 hPa | 0 mm | - | - | - |
* Rain latest hour (hover to see other rain measurements)
** Current wind speed in m/s (hover to see current wind gust speed)